This is the latest recevied weather packets stored in our database for station/object SP8C-13. If no packets are shown the sender has not sent any weather packets the latest 10 day(s).
| Time | Temp. | Humidity | Pressure | Rain* | Wind** | Luminosity | Snow |
|---|---|---|---|---|---|---|---|
| 1788589042 | 15.56° C | 85% | 1013.7 hPa | - | - | - | - |
| 1788562042 | 20° C | 70% | 1008.9 hPa | - | - | - | - |
| 1788560242 | - | 63% | 974.5 hPa | - | - | - | - |
| 1788542245 | 20.56° C | 65% | 1010.3 hPa | - | - | - | - |
| 1788538645 | 21.67° C | 61% | 1010.7 hPa | - | - | - | - |
| 1788536842 | 22.22° C | 61% | 1011.2 hPa | - | - | - | - |
| 1788531441 | 23.89° C | 57% | 1012.4 hPa | - | - | - | - |
| 1788522441 | 24.44° C | 55% | 1014.4 hPa | - | - | - | - |
| 1788520641 | 23.33° C | 58% | 1014.9 hPa | - | - | - | - |
| 1788517040 | 23.89° C | 58% | 1015.2 hPa | - | - | - | - |
| 1788513441 | 23.33° C | 61% | 1015.5 hPa | - | - | - | - |
| 1788509841 | 21.11° C | 66% | 1015.6 hPa | - | - | - | - |
| 1788508041 | 19.44° C | 70% | 1015.9 hPa | - | - | - | - |
| 1788506241 | 17.78° C | 75% | 1015.9 hPa | - | - | - | - |
| 1788502641 | 17.22° C | 77% | 1015.7 hPa | - | - | - | - |
| 1788500841 | 16.11° C | 81% | 1015.7 hPa | - | - | - | - |
| 1788499041 | 15° C | 88% | 1015.8 hPa | - | - | - | - |
| 1788497241 | 15° C | 87% | 1015.7 hPa | - | - | - | - |
| 1788495440 | 15° C | 90% | 1015.9 hPa | - | - | - | - |
| 1788470244 | 16.11° C | 83% | 1017.2 hPa | - | - | - | - |
| 1788441438 | 24.44° C | 51% | 1018 hPa | - | - | - | - |
| 1788434238 | 23.33° C | 59% | 1019 hPa | - | - | - | - |
| 1788432438 | 23.33° C | 59% | 1019.3 hPa | - | - | - | - |
| 1788430638 | 22.78° C | 59% | 1019.6 hPa | - | - | - | - |
| 1788427038 | 21.67° C | 67% | 1020.3 hPa | - | - | - | - |
* Rain since midnight (hover to see other rain measurements)
** Current wind speed in m/s (hover to see current wind gust speed)